sensor_id;sensor_type;location;lat;lon;timestamp;P1;durP1;ratioP1;P2;durP2;ratioP2
1174;SDS011;576;48.418;10.074;2024-02-21T00:00:34;2.97;;;2.67;;
1174;SDS011;576;48.418;10.074;2024-02-21T00:03:04;3.17;;;2.63;;
1174;SDS011;576;48.418;10.074;2024-02-21T00:05:32;3.73;;;3.43;;
1174;SDS011;576;48.418;10.074;2024-02-21T00:08:02;4.63;;;2.40;;
1174;SDS011;576;48.418;10.074;2024-02-21T00:10:32;3.17;;;2.70;;
1174;SDS011;576;48.418;10.074;2024-02-21T00:13:01;3.07;;;2.60;;
1174;SDS011;576;48.418;10.074;2024-02-21T00:15:30;2.80;;;2.60;;
1174;SDS011;576;48.418;10.074;2024-02-21T00:17:58;3.50;;;3.20;;
1174;SDS011;576;48.418;10.074;2024-02-21T00:20:26;2.67;;;2.47;;
1174;SDS011;576;48.418;10.074;2024-02-21T00:22:54;3.00;;;2.80;;
1174;SDS011;576;48.418;10.074;2024-02-21T00:25:23;2.70;;;2.50;;
1174;SDS011;576;48.418;10.074;2024-02-21T00:27:52;3.27;;;2.97;;
1174;SDS011;576;48.418;10.074;2024-02-21T00:30:21;3.93;;;2.43;;
1174;SDS011;576;48.418;10.074;2024-02-21T00:32:50;3.20;;;2.83;;
1174;SDS011;576;48.418;10.074;2024-02-21T00:35:18;4.00;;;3.70;;
1174;SDS011;576;48.418;10.074;2024-02-21T00:37:47;3.33;;;3.10;;
1174;SDS011;576;48.418;10.074;2024-02-21T00:40:15;4.40;;;2.90;;
1174;SDS011;576;48.418;10.074;2024-02-21T00:42:46;2.60;;;2.40;;
1174;SDS011;576;48.418;10.074;2024-02-21T00:45:16;2.60;;;2.40;;
1174;SDS011;576;48.418;10.074;2024-02-21T00:47:44;2.60;;;2.40;;
1174;SDS011;576;48.418;10.074;2024-02-21T00:50:13;3.20;;;3.00;;
1174;SDS011;576;48.418;10.074;2024-02-21T00:52:41;3.00;;;2.80;;
1174;SDS011;576;48.418;10.074;2024-02-21T00:55:09;3.07;;;2.33;;
1174;SDS011;576;48.418;10.074;2024-02-21T00:57:38;3.27;;;3.00;;
1174;SDS011;576;48.418;10.074;2024-02-21T01:00:06;4.43;;;3.03;;
1174;SDS011;576;48.418;10.074;2024-02-21T01:02:37;2.77;;;2.57;;
1174;SDS011;576;48.418;10.074;2024-02-21T01:05:05;2.53;;;2.20;;
1174;SDS011;576;48.418;10.074;2024-02-21T01:07:34;3.03;;;2.37;;
1174;SDS011;576;48.418;10.074;2024-02-21T01:10:02;2.90;;;2.30;;
1174;SDS011;576;48.418;10.074;2024-02-21T01:12:31;2.70;;;2.37;;
1174;SDS011;576;48.418;10.074;2024-02-21T01:14:59;2.33;;;2.13;;
1174;SDS011;576;48.418;10.074;2024-02-21T01:17:27;2.77;;;2.57;;
1174;SDS011;576;48.418;10.074;2024-02-21T01:19:57;2.90;;;2.70;;
1174;SDS011;576;48.418;10.074;2024-02-21T01:22:25;3.70;;;2.70;;
1174;SDS011;576;48.418;10.074;2024-02-21T01:24:54;3.67;;;2.60;;
1174;SDS011;576;48.418;10.074;2024-02-21T01:27:22;3.50;;;3.20;;
1174;SDS011;576;48.418;10.074;2024-02-21T01:29:50;3.47;;;3.17;;
1174;SDS011;576;48.418;10.074;2024-02-21T01:32:18;2.77;;;2.47;;
1174;SDS011;576;48.418;10.074;2024-02-21T01:34:48;3.20;;;2.63;;
1174;SDS011;576;48.418;10.074;2024-02-21T01:37:18;2.73;;;2.50;;
1174;SDS011;576;48.418;10.074;2024-02-21T01:39:46;4.53;;;2.53;;
1174;SDS011;576;48.418;10.074;2024-02-21T01:42:15;2.67;;;2.47;;
1174;SDS011;576;48.418;10.074;2024-02-21T01:44:44;3.03;;;2.63;;
1174;SDS011;576;48.418;10.074;2024-02-21T01:47:12;2.60;;;2.20;;
1174;SDS011;576;48.418;10.074;2024-02-21T01:49:41;2.77;;;2.47;;
1174;SDS011;576;48.418;10.074;2024-02-21T01:52:10;2.93;;;2.70;;
1174;SDS011;576;48.418;10.074;2024-02-21T01:54:42;4.20;;;3.10;;
1174;SDS011;576;48.418;10.074;2024-02-21T01:57:11;2.57;;;2.37;;
1174;SDS011;576;48.418;10.074;2024-02-21T01:59:39;2.30;;;2.10;;
1174;SDS011;576;48.418;10.074;2024-02-21T02:02:07;3.33;;;2.80;;
1174;SDS011;576;48.418;10.074;2024-02-21T02:04:37;2.80;;;2.60;;
1174;SDS011;576;48.418;10.074;2024-02-21T02:07:06;3.00;;;2.70;;
1174;SDS011;576;48.418;10.074;2024-02-21T02:09:35;2.60;;;2.40;;
1174;SDS011;576;48.418;10.074;2024-02-21T02:12:05;3.30;;;2.40;;
1174;SDS011;576;48.418;10.074;2024-02-21T02:14:33;3.37;;;3.07;;
1174;SDS011;576;48.418;10.074;2024-02-21T02:17:02;3.30;;;3.00;;
1174;SDS011;576;48.418;10.074;2024-02-21T02:19:30;2.70;;;2.50;;
1174;SDS011;576;48.418;10.074;2024-02-21T02:22:00;3.07;;;2.83;;
1174;SDS011;576;48.418;10.074;2024-02-21T02:24:37;2.90;;;2.33;;
1174;SDS011;576;48.418;10.074;2024-02-21T02:27:05;2.50;;;2.30;;
1174;SDS011;576;48.418;10.074;2024-02-21T02:29:33;3.33;;;2.50;;
1174;SDS011;576;48.418;10.074;2024-02-21T02:32:02;3.13;;;2.30;;
1174;SDS011;576;48.418;10.074;2024-02-21T02:34:30;2.57;;;2.37;;
1174;SDS011;576;48.418;10.074;2024-02-21T02:36:58;3.03;;;2.73;;
1174;SDS011;576;48.418;10.074;2024-02-21T02:39:27;2.33;;;2.13;;
1174;SDS011;576;48.418;10.074;2024-02-21T02:41:56;2.90;;;2.60;;
1174;SDS011;576;48.418;10.074;2024-02-21T02:44:24;3.20;;;2.63;;
1174;SDS011;576;48.418;10.074;2024-02-21T02:46:52;2.80;;;2.60;;
1174;SDS011;576;48.418;10.074;2024-02-21T02:49:21;3.00;;;2.80;;
1174;SDS011;576;48.418;10.074;2024-02-21T02:51:49;3.70;;;3.00;;
1174;SDS011;576;48.418;10.074;2024-02-21T02:54:17;2.57;;;2.30;;
1174;SDS011;576;48.418;10.074;2024-02-21T02:56:46;2.40;;;2.20;;
1174;SDS011;576;48.418;10.074;2024-02-21T02:59:15;2.50;;;2.30;;
1174;SDS011;576;48.418;10.074;2024-02-21T03:01:43;3.03;;;2.50;;
1174;SDS011;576;48.418;10.074;2024-02-21T03:04:12;2.93;;;2.73;;
1174;SDS011;576;48.418;10.074;2024-02-21T03:06:40;5.10;;;2.33;;
1174;SDS011;576;48.418;10.074;2024-02-21T03:09:08;2.47;;;2.10;;
1174;SDS011;576;48.418;10.074;2024-02-21T03:11:36;2.73;;;2.53;;
1174;SDS011;576;48.418;10.074;2024-02-21T03:14:07;3.83;;;2.77;;
1174;SDS011;576;48.418;10.074;2024-02-21T03:16:37;3.03;;;2.63;;
1174;SDS011;576;48.418;10.074;2024-02-21T03:19:05;2.23;;;2.10;;
1174;SDS011;576;48.418;10.074;2024-02-21T03:21:33;2.80;;;2.47;;
1174;SDS011;576;48.418;10.074;2024-02-21T03:24:02;3.57;;;2.47;;
1174;SDS011;576;48.418;10.074;2024-02-21T03:26:30;2.27;;;2.10;;
1174;SDS011;576;48.418;10.074;2024-02-21T03:28:59;2.57;;;2.37;;
1174;SDS011;576;48.418;10.074;2024-02-21T03:31:27;2.60;;;2.33;;
1174;SDS011;576;48.418;10.074;2024-02-21T03:33:59;2.40;;;2.20;;
1174;SDS011;576;48.418;10.074;2024-02-21T03:36:27;2.77;;;2.50;;
1174;SDS011;576;48.418;10.074;2024-02-21T03:38:55;3.20;;;2.23;;
1174;SDS011;576;48.418;10.074;2024-02-21T03:41:24;3.00;;;2.80;;
1174;SDS011;576;48.418;10.074;2024-02-21T03:43:52;3.10;;;2.60;;
1174;SDS011;576;48.418;10.074;2024-02-21T03:46:21;3.90;;;2.43;;
1174;SDS011;576;48.418;10.074;2024-02-21T03:48:49;4.30;;;2.70;;
1174;SDS011;576;48.418;10.074;2024-02-21T03:51:18;2.53;;;2.33;;
1174;SDS011;576;48.418;10.074;2024-02-21T03:53:47;2.97;;;2.50;;
1174;SDS011;576;48.418;10.074;2024-02-21T03:56:15;2.73;;;2.53;;
1174;SDS011;576;48.418;10.074;2024-02-21T03:58:43;2.43;;;2.20;;
1174;SDS011;576;48.418;10.074;2024-02-21T04:01:11;2.53;;;2.33;;
1174;SDS011;576;48.418;10.074;2024-02-21T04:03:43;3.20;;;2.90;;
1174;SDS011;576;48.418;10.074;2024-02-21T04:06:11;2.73;;;2.53;;
1174;SDS011;576;48.418;10.074;2024-02-21T04:08:41;2.10;;;2.00;;
1174;SDS011;576;48.418;10.074;2024-02-21T04:11:09;2.67;;;2.47;;
1174;SDS011;576;48.418;10.074;2024-02-21T04:13:37;2.27;;;2.10;;
1174;SDS011;576;48.418;10.074;2024-02-21T04:16:06;2.27;;;2.03;;
1174;SDS011;576;48.418;10.074;2024-02-21T04:18:34;2.60;;;2.40;;
1174;SDS011;576;48.418;10.074;2024-02-21T04:21:02;2.30;;;2.10;;
1174;SDS011;576;48.418;10.074;2024-02-21T04:23:31;3.00;;;2.40;;
1174;SDS011;576;48.418;10.074;2024-02-21T04:26:00;2.80;;;2.50;;
1174;SDS011;576;48.418;10.074;2024-02-21T04:28:28;2.40;;;2.17;;
1174;SDS011;576;48.418;10.074;2024-02-21T04:30:57;2.20;;;2.00;;
1174;SDS011;576;48.418;10.074;2024-02-21T04:33:25;1.90;;;1.80;;
1174;SDS011;576;48.418;10.074;2024-02-21T04:35:53;2.90;;;2.10;;
1174;SDS011;576;48.418;10.074;2024-02-21T04:38:22;2.13;;;1.70;;
1174;SDS011;576;48.418;10.074;2024-02-21T04:40:50;2.70;;;2.43;;
1174;SDS011;576;48.418;10.074;2024-02-21T04:43:20;2.60;;;2.40;;
1174;SDS011;576;48.418;10.074;2024-02-21T04:45:48;2.30;;;2.10;;
1174;SDS011;576;48.418;10.074;2024-02-21T04:48:17;3.53;;;2.43;;
1174;SDS011;576;48.418;10.074;2024-02-21T04:50:45;2.40;;;2.07;;
1174;SDS011;576;48.418;10.074;2024-02-21T04:53:13;2.30;;;2.10;;
1174;SDS011;576;48.418;10.074;2024-02-21T04:55:42;3.33;;;2.10;;
1174;SDS011;576;48.418;10.074;2024-02-21T04:58:10;2.43;;;2.23;;
1174;SDS011;576;48.418;10.074;2024-02-21T05:00:40;2.80;;;2.03;;
1174;SDS011;576;48.418;10.074;2024-02-21T05:03:08;2.33;;;2.13;;
1174;SDS011;576;48.418;10.074;2024-02-21T05:05:37;1.97;;;1.87;;
1174;SDS011;576;48.418;10.074;2024-02-21T05:08:06;2.37;;;1.90;;
1174;SDS011;576;48.418;10.074;2024-02-21T05:10:34;2.60;;;2.37;;
1174;SDS011;576;48.418;10.074;2024-02-21T05:13:02;2.33;;;1.67;;
1174;SDS011;576;48.418;10.074;2024-02-21T05:15:31;1.50;;;1.40;;
1174;SDS011;576;48.418;10.074;2024-02-21T05:18:01;2.10;;;1.90;;
1174;SDS011;576;48.418;10.074;2024-02-21T05:20:29;2.50;;;2.30;;
1174;SDS011;576;48.418;10.074;2024-02-21T05:22:57;3.03;;;2.63;;
1174;SDS011;576;48.418;10.074;2024-02-21T05:25:26;2.07;;;1.97;;
1174;SDS011;576;48.418;10.074;2024-02-21T05:27:54;1.87;;;1.73;;
1174;SDS011;576;48.418;10.074;2024-02-21T05:30:28;2.30;;;2.10;;
1174;SDS011;576;48.418;10.074;2024-02-21T05:32:56;2.57;;;2.37;;
1174;SDS011;576;48.418;10.074;2024-02-21T05:35:26;1.90;;;1.80;;
1174;SDS011;576;48.418;10.074;2024-02-21T05:37:55;2.83;;;2.00;;
1174;SDS011;576;48.418;10.074;2024-02-21T05:40:23;1.90;;;1.80;;
1174;SDS011;576;48.418;10.074;2024-02-21T05:42:51;3.57;;;2.10;;
1174;SDS011;576;48.418;10.074;2024-02-21T05:45:20;2.40;;;2.20;;
1174;SDS011;576;48.418;10.074;2024-02-21T05:47:48;2.30;;;1.77;;
1174;SDS011;576;48.418;10.074;2024-02-21T05:50:17;2.67;;;2.33;;
1174;SDS011;576;48.418;10.074;2024-02-21T05:52:46;2.30;;;2.20;;
1174;SDS011;576;48.418;10.074;2024-02-21T05:55:15;2.17;;;1.67;;
1174;SDS011;576;48.418;10.074;2024-02-21T05:57:43;3.20;;;2.87;;
1174;SDS011;576;48.418;10.074;2024-02-21T06:00:12;2.70;;;1.70;;
1174;SDS011;576;48.418;10.074;2024-02-21T06:02:41;4.47;;;2.00;;
1174;SDS011;576;48.418;10.074;2024-02-21T06:05:11;2.90;;;2.63;;
1174;SDS011;576;48.418;10.074;2024-02-21T06:07:39;2.67;;;2.47;;
1174;SDS011;576;48.418;10.074;2024-02-21T06:10:09;2.10;;;1.90;;
1174;SDS011;576;48.418;10.074;2024-02-21T06:12:37;3.43;;;1.60;;
1174;SDS011;576;48.418;10.074;2024-02-21T06:15:06;6.33;;;2.03;;
1174;SDS011;576;48.418;10.074;2024-02-21T06:17:34;2.30;;;1.97;;
1174;SDS011;576;48.418;10.074;2024-02-21T06:20:03;2.47;;;2.10;;
1174;SDS011;576;48.418;10.074;2024-02-21T06:22:32;3.53;;;1.80;;
1174;SDS011;576;48.418;10.074;2024-02-21T06:25:00;2.70;;;1.70;;
1174;SDS011;576;48.418;10.074;2024-02-21T06:27:30;2.67;;;1.73;;
1174;SDS011;576;48.418;10.074;2024-02-21T06:29:59;1.70;;;1.60;;
1174;SDS011;576;48.418;10.074;2024-02-21T06:32:27;1.77;;;1.53;;
1174;SDS011;576;48.418;10.074;2024-02-21T06:34:56;3.33;;;2.43;;
1174;SDS011;576;48.418;10.074;2024-02-21T06:37:24;5.80;;;2.13;;
1174;SDS011;576;48.418;10.074;2024-02-21T06:39:52;4.83;;;2.90;;
1174;SDS011;576;48.418;10.074;2024-02-21T06:42:21;5.83;;;2.70;;
1174;SDS011;576;48.418;10.074;2024-02-21T06:44:53;2.33;;;2.13;;
1174;SDS011;576;48.418;10.074;2024-02-21T06:47:23;9.47;;;2.33;;
1174;SDS011;576;48.418;10.074;2024-02-21T06:49:53;4.13;;;2.60;;
1174;SDS011;576;48.418;10.074;2024-02-21T06:52:21;4.30;;;3.03;;
1174;SDS011;576;48.418;10.074;2024-02-21T06:54:51;4.07;;;3.60;;
1174;SDS011;576;48.418;10.074;2024-02-21T06:57:19;3.17;;;2.73;;
1174;SDS011;576;48.418;10.074;2024-02-21T06:59:48;5.50;;;3.47;;
1174;SDS011;576;48.418;10.074;2024-02-21T07:02:17;3.17;;;2.53;;
1174;SDS011;576;48.418;10.074;2024-02-21T07:04:45;3.77;;;3.00;;
1174;SDS011;576;48.418;10.074;2024-02-21T07:07:14;3.90;;;2.40;;
1174;SDS011;576;48.418;10.074;2024-02-21T07:09:42;5.13;;;2.50;;
1174;SDS011;576;48.418;10.074;2024-02-21T07:12:10;5.23;;;2.77;;
1174;SDS011;576;48.418;10.074;2024-02-21T07:14:39;6.60;;;2.60;;
1174;SDS011;576;48.418;10.074;2024-02-21T07:17:07;7.17;;;2.80;;
1174;SDS011;576;48.418;10.074;2024-02-21T07:19:37;3.23;;;2.47;;
1174;SDS011;576;48.418;10.074;2024-02-21T07:22:05;3.37;;;2.07;;
1174;SDS011;576;48.418;10.074;2024-02-21T07:24:33;2.87;;;2.60;;
1174;SDS011;576;48.418;10.074;2024-02-21T07:27:02;3.10;;;2.17;;
1174;SDS011;576;48.418;10.074;2024-02-21T07:29:31;3.70;;;2.33;;
1174;SDS011;576;48.418;10.074;2024-02-21T07:31:59;4.07;;;2.40;;
1174;SDS011;576;48.418;10.074;2024-02-21T07:34:28;3.47;;;2.57;;
1174;SDS011;576;48.418;10.074;2024-02-21T07:36:58;3.13;;;2.80;;
1174;SDS011;576;48.418;10.074;2024-02-21T07:39:27;3.17;;;2.87;;
1174;SDS011;576;48.418;10.074;2024-02-21T07:41:55;4.10;;;2.50;;
1174;SDS011;576;48.418;10.074;2024-02-21T07:44:23;3.53;;;2.20;;
1174;SDS011;576;48.418;10.074;2024-02-21T07:46:51;3.27;;;2.27;;
1174;SDS011;576;48.418;10.074;2024-02-21T07:49:19;4.50;;;2.87;;
1174;SDS011;576;48.418;10.074;2024-02-21T07:51:48;2.63;;;2.43;;
1174;SDS011;576;48.418;10.074;2024-02-21T07:54:17;3.53;;;2.40;;
1174;SDS011;576;48.418;10.074;2024-02-21T07:56:47;3.20;;;2.20;;
1174;SDS011;576;48.418;10.074;2024-02-21T07:59:15;3.53;;;2.50;;
1174;SDS011;576;48.418;10.074;2024-02-21T08:01:43;6.00;;;2.80;;
1174;SDS011;576;48.418;10.074;2024-02-21T08:04:12;7.53;;;2.43;;
1174;SDS011;576;48.418;10.074;2024-02-21T08:06:41;3.03;;;2.73;;
1174;SDS011;576;48.418;10.074;2024-02-21T08:09:10;6.87;;;3.67;;
1174;SDS011;576;48.418;10.074;2024-02-21T08:11:39;3.47;;;2.47;;
1174;SDS011;576;48.418;10.074;2024-02-21T08:14:07;3.40;;;2.30;;
1174;SDS011;576;48.418;10.074;2024-02-21T08:16:36;2.70;;;2.50;;
1174;SDS011;576;48.418;10.074;2024-02-21T08:19:04;1.97;;;1.77;;
1174;SDS011;576;48.418;10.074;2024-02-21T08:21:32;4.60;;;2.80;;
1174;SDS011;576;48.418;10.074;2024-02-21T08:24:00;2.83;;;2.50;;
1174;SDS011;576;48.418;10.074;2024-02-21T08:26:29;2.10;;;2.00;;
1174;SDS011;576;48.418;10.074;2024-02-21T08:28:59;2.23;;;2.13;;
1174;SDS011;576;48.418;10.074;2024-02-21T08:31:27;3.97;;;2.37;;
1174;SDS011;576;48.418;10.074;2024-02-21T08:33:58;2.93;;;2.30;;
1174;SDS011;576;48.418;10.074;2024-02-21T08:36:29;2.40;;;2.20;;
1174;SDS011;576;48.418;10.074;2024-02-21T08:38:59;2.00;;;1.80;;
1174;SDS011;576;48.418;10.074;2024-02-21T08:41:30;3.43;;;1.90;;
1174;SDS011;576;48.418;10.074;2024-02-21T08:44:18;2.17;;;1.97;;
1174;SDS011;576;48.418;10.074;2024-02-21T08:46:47;2.73;;;2.00;;
1174;SDS011;576;48.418;10.074;2024-02-21T08:49:15;2.07;;;1.87;;
1174;SDS011;576;48.418;10.074;2024-02-21T08:51:43;9.27;;;2.27;;
1174;SDS011;576;48.418;10.074;2024-02-21T08:54:12;2.97;;;1.77;;
1174;SDS011;576;48.418;10.074;2024-02-21T08:56:41;3.10;;;2.13;;
1174;SDS011;576;48.418;10.074;2024-02-21T08:59:09;1.73;;;1.63;;
1174;SDS011;576;48.418;10.074;2024-02-21T09:01:39;2.07;;;1.87;;
1174;SDS011;576;48.418;10.074;2024-02-21T09:04:07;2.13;;;1.80;;
1174;SDS011;576;48.418;10.074;2024-02-21T09:06:35;2.00;;;1.90;;
1174;SDS011;576;48.418;10.074;2024-02-21T09:09:08;2.77;;;2.07;;
1174;SDS011;576;48.418;10.074;2024-02-21T09:11:36;1.90;;;1.80;;
1174;SDS011;576;48.418;10.074;2024-02-21T09:14:06;1.80;;;1.70;;
1174;SDS011;576;48.418;10.074;2024-02-21T09:16:34;3.03;;;2.13;;
1174;SDS011;576;48.418;10.074;2024-02-21T09:19:04;2.37;;;2.00;;
1174;SDS011;576;48.418;10.074;2024-02-21T09:21:33;1.70;;;1.60;;
1174;SDS011;576;48.418;10.074;2024-02-21T09:24:02;2.17;;;1.90;;
1174;SDS011;576;48.418;10.074;2024-02-21T09:26:30;2.03;;;1.80;;
1174;SDS011;576;48.418;10.074;2024-02-21T09:28:58;2.77;;;2.30;;
1174;SDS011;576;48.418;10.074;2024-02-21T09:31:27;1.80;;;1.70;;
1174;SDS011;576;48.418;10.074;2024-02-21T09:33:56;4.03;;;1.98;;
1174;SDS011;576;48.418;10.074;2024-02-21T09:36:25;2.00;;;1.90;;
1174;SDS011;576;48.418;10.074;2024-02-21T09:38:54;1.83;;;1.73;;
1174;SDS011;576;48.418;10.074;2024-02-21T09:41:23;2.73;;;1.93;;
1174;SDS011;576;48.418;10.074;2024-02-21T09:43:54;1.70;;;1.60;;
1174;SDS011;576;48.418;10.074;2024-02-21T09:46:24;2.97;;;2.20;;
1174;SDS011;576;48.418;10.074;2024-02-21T09:49:04;3.77;;;2.20;;
1174;SDS011;576;48.418;10.074;2024-02-21T09:51:47;1.97;;;1.77;;
1174;SDS011;576;48.418;10.074;2024-02-21T09:54:18;1.50;;;1.40;;
1174;SDS011;576;48.418;10.074;2024-02-21T09:56:47;2.73;;;1.77;;
1174;SDS011;576;48.418;10.074;2024-02-21T09:59:16;2.07;;;1.90;;
1174;SDS011;576;48.418;10.074;2024-02-21T10:01:44;2.00;;;1.70;;
1174;SDS011;576;48.418;10.074;2024-02-21T10:04:14;1.90;;;1.70;;
1174;SDS011;576;48.418;10.074;2024-02-21T10:06:42;2.17;;;1.80;;
1174;SDS011;576;48.418;10.074;2024-02-21T10:09:20;1.80;;;1.70;;
1174;SDS011;576;48.418;10.074;2024-02-21T10:11:50;1.87;;;1.77;;
1174;SDS011;576;48.418;10.074;2024-02-21T10:14:18;2.63;;;1.60;;
1174;SDS011;576;48.418;10.074;2024-02-21T10:16:47;2.07;;;1.77;;
1174;SDS011;576;48.418;10.074;2024-02-21T10:19:17;2.90;;;1.67;;
1174;SDS011;576;48.418;10.074;2024-02-21T10:21:59;4.10;;;1.77;;
1174;SDS011;576;48.418;10.074;2024-02-21T10:24:31;1.60;;;1.50;;
1174;SDS011;576;48.418;10.074;2024-02-21T10:27:01;3.63;;;1.90;;
1174;SDS011;576;48.418;10.074;2024-02-21T10:29:30;2.50;;;1.93;;
1174;SDS011;576;48.418;10.074;2024-02-21T10:32:05;2.00;;;1.80;;
1174;SDS011;576;48.418;10.074;2024-02-21T10:34:35;1.30;;;1.20;;
1174;SDS011;576;48.418;10.074;2024-02-21T10:37:04;1.67;;;1.57;;
1174;SDS011;576;48.418;10.074;2024-02-21T10:39:35;2.90;;;1.70;;
1174;SDS011;576;48.418;10.074;2024-02-21T10:42:05;2.27;;;2.17;;
1174;SDS011;576;48.418;10.074;2024-02-21T10:44:36;2.07;;;1.90;;
1174;SDS011;576;48.418;10.074;2024-02-21T10:47:07;3.33;;;2.13;;
1174;SDS011;576;48.418;10.074;2024-02-21T10:49:38;1.83;;;1.37;;
1174;SDS011;576;48.418;10.074;2024-02-21T10:52:10;2.57;;;1.40;;
1174;SDS011;576;48.418;10.074;2024-02-21T10:54:47;1.70;;;1.60;;
1174;SDS011;576;48.418;10.074;2024-02-21T10:57:20;2.00;;;1.80;;
1174;SDS011;576;48.418;10.074;2024-02-21T10:59:49;1.50;;;1.27;;
1174;SDS011;576;48.418;10.074;2024-02-21T11:02:18;5.57;;;2.40;;
1174;SDS011;576;48.418;10.074;2024-02-21T11:04:47;2.00;;;1.90;;
1174;SDS011;576;48.418;10.074;2024-02-21T11:07:18;2.23;;;2.07;;
1174;SDS011;576;48.418;10.074;2024-02-21T11:09:52;1.67;;;1.57;;
1174;SDS011;576;48.418;10.074;2024-02-21T11:12:22;1.70;;;1.50;;
1174;SDS011;576;48.418;10.074;2024-02-21T11:14:52;1.50;;;1.40;;
1174;SDS011;576;48.418;10.074;2024-02-21T11:17:20;2.93;;;2.10;;
1174;SDS011;576;48.418;10.074;2024-02-21T11:19:52;3.30;;;1.83;;
1174;SDS011;576;48.418;10.074;2024-02-21T11:22:21;1.70;;;1.60;;
1174;SDS011;576;48.418;10.074;2024-02-21T11:24:53;1.73;;;1.63;;
1174;SDS011;576;48.418;10.074;2024-02-21T11:27:22;2.53;;;1.57;;
1174;SDS011;576;48.418;10.074;2024-02-21T11:29:54;1.70;;;1.60;;
1174;SDS011;576;48.418;10.074;2024-02-21T11:32:23;1.37;;;1.27;;
1174;SDS011;576;48.418;10.074;2024-02-21T11:34:54;2.20;;;1.30;;
1174;SDS011;576;48.418;10.074;2024-02-21T11:37:24;1.87;;;1.30;;
1174;SDS011;576;48.418;10.074;2024-02-21T11:39:56;2.10;;;1.47;;
1174;SDS011;576;48.418;10.074;2024-02-21T11:42:25;1.47;;;1.37;;
1174;SDS011;576;48.418;10.074;2024-02-21T11:44:56;2.83;;;2.00;;
1174;SDS011;576;48.418;10.074;2024-02-21T11:47:24;1.23;;;1.13;;
1174;SDS011;576;48.418;10.074;2024-02-21T11:49:53;1.93;;;1.20;;
1174;SDS011;576;48.418;10.074;2024-02-21T11:52:22;2.40;;;1.60;;
1174;SDS011;576;48.418;10.074;2024-02-21T11:54:53;1.53;;;1.43;;
1174;SDS011;576;48.418;10.074;2024-02-21T11:57:25;1.53;;;1.20;;
1174;SDS011;576;48.418;10.074;2024-02-21T11:59:54;2.77;;;2.07;;
1174;SDS011;576;48.418;10.074;2024-02-21T12:02:26;1.60;;;1.50;;
1174;SDS011;576;48.418;10.074;2024-02-21T12:04:55;2.33;;;1.83;;
1174;SDS011;576;48.418;10.074;2024-02-21T12:07:24;4.30;;;2.80;;
1174;SDS011;576;48.418;10.074;2024-02-21T12:09:58;2.33;;;2.13;;
1174;SDS011;576;48.418;10.074;2024-02-21T12:12:28;3.37;;;1.87;;
1174;SDS011;576;48.418;10.074;2024-02-21T12:14:57;3.90;;;2.20;;
1174;SDS011;576;48.418;10.074;2024-02-21T12:17:25;4.03;;;2.50;;
1174;SDS011;576;48.418;10.074;2024-02-21T12:19:54;6.07;;;3.07;;
1174;SDS011;576;48.418;10.074;2024-02-21T12:22:22;3.30;;;2.80;;
1174;SDS011;576;48.418;10.074;2024-02-21T12:24:52;4.83;;;3.10;;
1174;SDS011;576;48.418;10.074;2024-02-21T12:27:21;4.00;;;2.57;;
1174;SDS011;576;48.418;10.074;2024-02-21T12:29:51;5.20;;;3.43;;
1174;SDS011;576;48.418;10.074;2024-02-21T12:32:19;6.30;;;3.23;;
1174;SDS011;576;48.418;10.074;2024-02-21T12:34:48;5.27;;;3.37;;
1174;SDS011;576;48.418;10.074;2024-02-21T12:37:21;4.93;;;3.23;;
1174;SDS011;576;48.418;10.074;2024-02-21T12:39:50;4.80;;;3.27;;
1174;SDS011;576;48.418;10.074;2024-02-21T12:42:18;5.53;;;2.87;;
1174;SDS011;576;48.418;10.074;2024-02-21T12:44:46;4.37;;;2.70;;
1174;SDS011;576;48.418;10.074;2024-02-21T12:47:16;4.03;;;2.80;;
1174;SDS011;576;48.418;10.074;2024-02-21T12:49:46;6.40;;;2.50;;
1174;SDS011;576;48.418;10.074;2024-02-21T12:52:14;6.93;;;2.73;;
1174;SDS011;576;48.418;10.074;2024-02-21T12:54:43;6.33;;;2.90;;
1174;SDS011;576;48.418;10.074;2024-02-21T12:57:12;6.50;;;3.10;;
1174;SDS011;576;48.418;10.074;2024-02-21T12:59:41;7.63;;;3.97;;
1174;SDS011;576;48.418;10.074;2024-02-21T13:02:09;3.63;;;2.70;;
1174;SDS011;576;48.418;10.074;2024-02-21T13:04:39;3.80;;;2.90;;
1174;SDS011;576;48.418;10.074;2024-02-21T13:07:08;5.07;;;3.00;;
1174;SDS011;576;48.418;10.074;2024-02-21T13:09:36;5.33;;;2.90;;
1174;SDS011;576;48.418;10.074;2024-02-21T13:12:04;4.20;;;2.50;;
1174;SDS011;576;48.418;10.074;2024-02-21T13:14:33;6.27;;;2.90;;
1174;SDS011;576;48.418;10.074;2024-02-21T13:17:03;2.90;;;2.43;;
1174;SDS011;576;48.418;10.074;2024-02-21T13:19:31;3.63;;;2.80;;
1174;SDS011;576;48.418;10.074;2024-02-21T13:22:01;3.20;;;2.27;;
1174;SDS011;576;48.418;10.074;2024-02-21T13:24:29;3.27;;;2.83;;
1174;SDS011;576;48.418;10.074;2024-02-21T13:26:58;5.30;;;2.50;;
1174;SDS011;576;48.418;10.074;2024-02-21T13:29:26;4.57;;;2.70;;
1174;SDS011;576;48.418;10.074;2024-02-21T13:31:55;3.07;;;2.57;;
1174;SDS011;576;48.418;10.074;2024-02-21T13:34:23;2.73;;;1.93;;
1174;SDS011;576;48.418;10.074;2024-02-21T13:36:52;5.23;;;2.47;;
1174;SDS011;576;48.418;10.074;2024-02-21T13:39:21;3.13;;;2.20;;
1174;SDS011;576;48.418;10.074;2024-02-21T13:41:50;3.20;;;2.33;;
1174;SDS011;576;48.418;10.074;2024-02-21T13:44:18;3.27;;;2.03;;
1174;SDS011;576;48.418;10.074;2024-02-21T13:46:46;4.20;;;2.10;;
1174;SDS011;576;48.418;10.074;2024-02-21T13:49:15;3.63;;;1.70;;
1174;SDS011;576;48.418;10.074;2024-02-21T13:51:45;2.90;;;2.20;;
1174;SDS011;576;48.418;10.074;2024-02-21T13:54:14;4.53;;;2.30;;
1174;SDS011;576;48.418;10.074;2024-02-21T13:56:45;3.30;;;2.10;;
1174;SDS011;576;48.418;10.074;2024-02-21T13:59:13;3.37;;;2.30;;
1174;SDS011;576;48.418;10.074;2024-02-21T14:01:41;1.63;;;1.53;;
1174;SDS011;576;48.418;10.074;2024-02-21T14:04:10;3.43;;;1.80;;
1174;SDS011;576;48.418;10.074;2024-02-21T14:06:38;4.07;;;2.43;;
1174;SDS011;576;48.418;10.074;2024-02-21T14:09:09;2.67;;;1.80;;
1174;SDS011;576;48.418;10.074;2024-02-21T14:11:38;2.40;;;1.87;;
1174;SDS011;576;48.418;10.074;2024-02-21T14:14:09;2.20;;;1.83;;
1174;SDS011;576;48.418;10.074;2024-02-21T14:16:38;1.77;;;1.27;;
1174;SDS011;576;48.418;10.074;2024-02-21T14:19:06;1.80;;;1.40;;
1174;SDS011;576;48.418;10.074;2024-02-21T14:21:36;4.13;;;2.13;;
1174;SDS011;576;48.418;10.074;2024-02-21T14:24:04;4.73;;;1.53;;
1174;SDS011;576;48.418;10.074;2024-02-21T14:26:33;3.70;;;1.87;;
1174;SDS011;576;48.418;10.074;2024-02-21T14:29:02;1.70;;;1.60;;
1174;SDS011;576;48.418;10.074;2024-02-21T14:31:32;3.07;;;1.80;;
1174;SDS011;576;48.418;10.074;2024-02-21T14:34:00;2.20;;;1.63;;
1174;SDS011;576;48.418;10.074;2024-02-21T14:36:29;3.73;;;2.00;;
1174;SDS011;576;48.418;10.074;2024-02-21T14:38:59;1.30;;;1.20;;
1174;SDS011;576;48.418;10.074;2024-02-21T14:41:27;2.70;;;1.87;;
1174;SDS011;576;48.418;10.074;2024-02-21T14:43:56;2.30;;;1.90;;
1174;SDS011;576;48.418;10.074;2024-02-21T14:46:31;2.40;;;1.70;;
1174;SDS011;576;48.418;10.074;2024-02-21T14:49:01;1.67;;;1.57;;
1174;SDS011;576;48.418;10.074;2024-02-21T14:51:30;4.40;;;1.70;;
1174;SDS011;576;48.418;10.074;2024-02-21T14:53:59;1.53;;;1.43;;
1174;SDS011;576;48.418;10.074;2024-02-21T14:56:28;1.87;;;1.50;;
1174;SDS011;576;48.418;10.074;2024-02-21T14:58:56;2.73;;;1.30;;
1174;SDS011;576;48.418;10.074;2024-02-21T15:01:38;1.80;;;1.50;;
1174;SDS011;576;48.418;10.074;2024-02-21T15:04:06;2.07;;;1.60;;
1174;SDS011;576;48.418;10.074;2024-02-21T15:06:35;2.03;;;1.30;;
1174;SDS011;576;48.418;10.074;2024-02-21T15:09:04;2.23;;;1.30;;
1174;SDS011;576;48.418;10.074;2024-02-21T15:11:35;1.53;;;1.33;;
1174;SDS011;576;48.418;10.074;2024-02-21T15:14:03;1.83;;;1.30;;
1174;SDS011;576;48.418;10.074;2024-02-21T15:16:31;1.90;;;1.63;;
1174;SDS011;576;48.418;10.074;2024-02-21T15:19:02;1.40;;;1.30;;
1174;SDS011;576;48.418;10.074;2024-02-21T15:21:30;3.60;;;1.70;;
1174;SDS011;576;48.418;10.074;2024-02-21T15:23:58;1.90;;;1.37;;
1174;SDS011;576;48.418;10.074;2024-02-21T15:26:28;1.50;;;1.23;;